Time;durP1;ratioP1;P1;durP2;ratioP2;P2;SDS_P1;SDS_P2;PMS_P1;PMS_P2;Temp;Humidity;BMP_temperature;BMP_pressure;BME280_temperature;BME280_humidity;BME280_pressure;Samples;Min_cycle;Max_cycle;Signal;HPM_P1;HPM_P2
2022/12/20 00:00:42;;;;;;;21.30;11.38;;;;;;;9.66;89.84;101285.81;5116230;28;20035;-48
2022/12/20 00:03:07;;;;;;;;;;;;;;;9.69;90.57;101284.22;5117147;28;20494;-49
2022/12/20 00:05:35;;;;;;;21.57;11.83;;;;;;;9.63;90.03;101293.41;5115946;28;19907;-48
2022/12/20 00:08:01;;;;;;;14.43;7.75;;;;;;;9.72;89.32;101284.38;5116342;28;20035;-48
2022/12/20 00:10:26;;;;;;;16.13;8.20;;;;;;;9.66;90.09;101293.56;5116600;28;20039;-46
2022/12/20 00:12:51;;;;;;;15.05;7.70;;;;;;;9.68;89.59;101284.19;5115671;28;20481;-46
2022/12/20 00:15:16;;;;;;;15.65;7.22;;;;;;;9.73;89.42;101287.81;5116532;28;20034;-48
2022/12/20 00:17:42;;;;;;;37.33;16.65;;;;;;;9.77;88.96;101279.38;5116343;28;20455;-46
2022/12/20 00:20:08;;;;;;;15.27;7.50;;;;;;;9.78;88.87;101277.72;5116062;28;20062;-45
2022/12/20 00:22:33;;;;;;;13.57;7.30;;;;;;;9.80;88.60;101270.91;5115857;28;20375;-44
2022/12/20 00:24:58;;;;;;;17.25;7.50;;;;;;;9.83;88.51;101277.06;5116267;28;20062;-45
2022/12/20 00:27:23;;;;;;;15.63;7.43;;;;;;;9.93;88.00;101261.97;5115682;28;20027;-44
2022/12/20 00:29:49;;;;;;;21.67;9.88;;;;;;;9.95;87.72;101270.66;5115721;28;20030;-47
2022/12/20 00:32:14;;;;;;;15.35;8.52;;;;;;;9.94;87.73;101274.03;5116355;28;20020;-46
2022/12/20 00:34:39;;;;;;;14.90;6.63;;;;;;;9.95;87.37;101266.34;5115521;28;20027;-49
2022/12/20 00:37:05;;;;;;;22.77;9.57;;;;;;;10.00;87.35;101264.84;5115921;28;20103;-48
2022/12/20 00:39:30;;;;;;;18.23;7.03;;;;;;;10.05;86.92;101257.31;5116006;28;20027;-45
2022/12/20 00:41:55;;;;;;;40.40;16.85;;;;;;;9.99;87.40;101265.69;5115264;28;20156;-49
2022/12/20 00:44:20;;;;;;;25.23;11.20;;;;;;;9.98;87.48;101256.19;5115889;28;20020;-47
2022/12/20 00:46:46;;;;;;;32.88;13.60;;;;;;;9.99;87.28;101245.09;5115521;28;20059;-47
2022/12/20 00:49:11;;;;;;;22.83;8.30;;;;;;;10.06;86.97;101238.47;5115571;28;20023;-45
2022/12/20 00:51:36;;;;;;;19.00;6.97;;;;;;;10.10;86.73;101229.16;5115377;28;20015;-48
2022/12/20 00:54:02;;;;;;;18.45;8.00;;;;;;;10.09;86.57;101236.00;5115801;28;20028;-49
2022/12/20 00:56:27;;;;;;;21.33;7.88;;;;;;;10.03;87.06;101238.34;5114931;28;20023;-47
2022/12/20 00:58:53;;;;;;;32.00;12.35;;;;;;;10.07;86.86;101254.78;5114472;28;20035;-47
2022/12/20 01:01:20;;;;;;;26.23;10.77;;;;;;;10.13;86.69;101245.59;5115260;28;20122;-45
2022/12/20 01:03:46;;;;;;;21.98;7.75;;;;;;;10.11;86.74;101247.25;5115129;28;20024;-47
2022/12/20 01:06:11;;;;;;;20.45;9.32;;;;;;;10.12;86.76;101246.44;5115498;28;20031;-47
2022/12/20 01:08:37;;;;;;;16.98;7.45;;;;;;;10.15;86.82;101246.53;5114675;28;20068;-47
2022/12/20 01:11:11;;;;;;;16.92;7.38;;;;;;;10.13;87.31;101252.44;5115365;28;20031;-44
2022/12/20 01:13:43;;;;;;;25.88;10.38;;;;;;;10.02;90.12;101252.91;5115408;28;20032;-48
2022/12/20 01:16:13;;;;;;;56.03;16.70;;;;;;;9.92;91.63;101250.81;5114970;28;20023;-48
2022/12/20 01:18:38;;;;;;;27.95;10.00;;;;;;;9.80;94.01;101258.94;5114723;28;20501;-46
2022/12/20 01:21:07;;;;;;;23.15;8.70;;;;;;;9.71;95.63;101261.16;5115267;28;20027;-48
2022/12/20 01:23:32;;;;;;;34.53;11.85;;;;;;;9.63;96.29;101257.38;5114271;28;20020;-49
2022/12/20 01:26:03;;;;;;;29.92;10.52;;;;;;;9.59;96.59;101263.22;5114894;28;20042;-49
2022/12/20 01:28:30;;;;;;;31.45;10.73;;;;;;;9.52;97.86;101255.25;5115310;28;20152;-48
2022/12/20 01:30:55;;;;;;;29.33;9.75;;;;;;;9.52;99.03;101234.66;5114263;28;20464;-48
2022/12/20 01:33:21;;;;;;;24.83;8.60;;;;;;;9.39;100.00;101259.03;5114928;28;20073;-49
2022/12/20 01:36:00;;;;;;;53.40;20.05;;;;;;;9.31;100.00;101255.25;5114648;28;20020;-46
2022/12/20 01:38:27;;;;;;;27.88;10.70;;;;;;;9.19;100.00;101254.75;5114600;28;20105;-48
2022/12/20 01:40:53;;;;;;;33.70;10.55;;;;;;;9.11;100.00;101253.56;5114926;28;20035;-46
2022/12/20 01:43:19;;;;;;;30.23;12.20;;;;;;;9.04;100.00;101247.28;5114918;28;20073;-48
2022/12/20 01:45:45;;;;;;;33.42;13.90;;;;;;;8.97;100.00;101238.41;5113696;28;20459;-49
2022/12/20 01:48:15;;;;;;;49.35;23.15;;;;;;;8.88;100.00;101238.91;5114679;28;20042;-48
2022/12/20 01:50:41;;;;;;;43.03;16.40;;;;;;;8.85;100.00;101237.91;5113766;28;20126;-47
2022/12/20 01:53:06;;;;;;;30.73;12.98;;;;;;;8.82;100.00;101237.75;5114569;28;20107;-46
2022/12/20 01:55:32;;;;;;;64.10;33.78;;;;;;;8.76;100.00;101237.50;5114495;28;20015;-45
2022/12/20 01:57:59;;;;;;;30.27;12.57;;;;;;;8.75;100.00;101231.47;5113892;28;20479;-49
2022/12/20 02:00:25;;;;;;;39.35;20.15;;;;;;;8.76;100.00;101219.53;5114338;28;20047;-46
2022/12/20 02:02:50;;;;;;;28.33;12.32;;;;;;;8.78;100.00;101216.19;5114168;28;20557;-46
2022/12/20 02:05:18;;;;;;;37.72;22.63;;;;;;;8.78;100.00;101216.19;5113755;28;20386;-49
2022/12/20 02:07:47;;;;;;;27.02;10.73;;;;;;;8.80;100.00;101219.69;5114025;28;20072;-48
2022/12/20 02:10:12;;;;;;;26.10;11.52;;;;;;;8.77;100.00;101224.72;5113376;28;20031;-46
2022/12/20 02:12:41;;;;;;;30.13;12.43;;;;;;;8.74;100.00;101211.75;5113487;28;20027;-48
2022/12/20 02:15:23;;;;;;;32.38;11.88;;;;;;;8.76;100.00;101199.81;5114019;28;20062;-48
2022/12/20 02:18:21;;;;;;;30.40;12.15;;;;;;;8.72;100.00;101190.25;5114104;28;20027;-48
2022/12/20 02:21:37;;;;;;;24.33;11.15;;;;;;;8.70;100.00;101191.84;5113158;28;20483;-48
2022/12/20 02:24:11;;;;;;;20.90;9.90;;;;;;;8.69;100.00;101180.72;5068764;28;20039;-48
2022/12/20 02:27:05;;;;;;;30.13;10.45;;;;;;;8.70;100.00;101186.72;5113359;28;20413;-49
2022/12/20 02:30:00;;;;;;;21.27;10.32;;;;;;;8.67;100.00;101166.03;5113783;28;20460;-44
2022/12/20 02:32:32;;;;;;;18.50;9.57;;;;;;;8.68;100.00;101176.38;5114128;28;20030;-48
2022/12/20 02:34:58;;;;;;;22.83;10.60;;;;;;;8.64;100.00;101166.78;5113342;28;20034;-48
2022/12/20 02:37:23;;;;;;;19.17;9.88;;;;;;;8.61;100.00;101176.03;5113905;28;20028;-49
2022/12/20 02:39:49;;;;;;;18.20;9.57;;;;;;;8.63;100.00;101164.16;5112952;28;20026;-45
2022/12/20 02:42:19;;;;;;;17.77;8.93;;;;;;;8.63;100.00;101165.03;5113443;28;20032;-47
2022/12/20 02:45:14;;;;;;;21.40;9.23;;;;;;;8.66;100.00;101166.84;5113513;28;20406;-47
2022/12/20 02:47:51;;;;;;;20.10;9.40;;;;;;;8.66;100.00;101156.56;5112884;28;20054;-48
2022/12/20 02:50:26;;;;;;;22.25;9.25;;;;;;;8.71;100.00;101167.91;5113495;28;20023;-46
2022/12/20 02:52:52;;;;;;;16.52;8.25;;;;;;;8.75;100.00;101163.78;5113331;28;20023;-47
2022/12/20 02:55:23;;;;;;;15.45;8.18;;;;;;;8.82;100.00;101153.84;5112929;28;20078;-48
2022/12/20 02:58:00;;;;;;;12.82;8.13;;;;;;;8.87;100.00;101144.63;5112865;28;20371;-48
2022/12/20 03:00:31;;;;;;;14.60;8.60;;;;;;;8.93;100.00;101153.41;5113318;28;20019;-48
2022/12/20 03:05:46;;;;;;;17.10;8.45;;;;;;;9.11;100.00;101149.00;5113093;28;20034;-49
2022/12/20 03:08:11;;;;;;;16.35;7.65;;;;;;;9.12;100.00;101150.75;5112577;28;20027;-47
2022/12/20 03:10:37;;;;;;;12.07;6.88;;;;;;;9.21;100.00;101139.97;5112907;28;20031;-48
2022/12/20 03:13:02;;;;;;;19.38;7.55;;;;;;;9.29;100.00;101150.56;5113508;28;20024;-47
2022/12/20 03:15:28;;;;;;;14.32;7.53;;;;;;;9.30;100.00;101137.75;5112892;28;20020;-48
2022/12/20 03:17:53;;;;;;;16.05;8.13;;;;;;;9.30;100.00;101149.75;5112742;28;20496;-48
2022/12/20 03:20:18;;;;;;;14.70;7.70;;;;;;;9.41;100.00;101148.44;5112937;28;20031;-48
2022/12/20 03:22:44;;;;;;;13.02;7.00;;;;;;;9.43;100.00;101149.41;5112378;28;20429;-49
2022/12/20 03:25:09;;;;;;;14.80;7.20;;;;;;;9.50;100.00;101141.13;5113117;28;20024;-47
2022/12/20 03:27:34;;;;;;;16.63;7.13;;;;;;;9.56;100.00;101143.03;5112812;28;20481;-48
2022/12/20 03:30:00;;;;;;;15.63;7.13;;;;;;;9.58;100.00;101137.94;5112593;28;20028;-47
2022/12/20 03:32:25;;;;;;;16.05;6.90;;;;;;;9.64;100.00;101135.59;5113012;28;20501;-47
2022/12/20 03:34:50;;;;;;;14.35;6.75;;;;;;;9.66;100.00;101133.97;5112987;28;20034;-48
2022/12/20 03:37:16;;;;;;;11.55;6.50;;;;;;;9.70;100.00;101129.00;5112509;28;20032;-44
2022/12/20 03:39:41;;;;;;;14.05;7.18;;;;;;;9.69;100.00;101140.09;5112481;28;20510;-48
2022/12/20 03:42:07;;;;;;;13.50;6.55;;;;;;;9.71;100.00;101145.34;5113214;28;20034;-43
2022/12/20 03:44:32;;;;;;;13.57;6.82;;;;;;;9.78;100.00;101143.84;5112213;28;20027;-48
2022/12/20 03:46:58;;;;;;;14.25;6.40;;;;;;;9.83;100.00;101148.34;5112666;28;20076;-49
2022/12/20 03:49:23;;;;;;;15.38;6.90;;;;;;;9.84;100.00;101162.97;5112925;28;20182;-48
2022/12/20 03:51:48;;;;;;;13.75;6.40;;;;;;;9.87;100.00;101157.94;5112056;28;20062;-48
2022/12/20 03:54:13;;;;;;;15.38;6.53;;;;;;;9.88;100.00;101162.28;5098726;28;20028;-49
2022/12/20 03:56:39;;;;;;;14.70;6.43;;;;;;;9.95;99.94;101154.78;5092322;28;20024;-46
2022/12/20 03:59:04;;;;;;;12.93;6.93;;;;;;;9.99;99.39;101149.81;5091891;28;20028;-48
2022/12/20 04:01:29;;;;;;;15.27;7.25;;;;;;;9.97;99.91;101148.00;5092331;28;20044;-46
2022/12/20 04:03:55;;;;;;;13.30;6.45;;;;;;;10.04;98.96;101132.84;5092158;28;20020;-47
2022/12/20 04:06:22;;;;;;;15.55;7.20;;;;;;;10.04;99.34;101137.97;5091818;28;20101;-45
2022/12/20 04:08:48;;;;;;;12.70;6.25;;;;;;;10.07;98.91;101133.75;5092224;28;20028;-46
2022/12/20 04:11:16;;;;;;;12.95;6.80;;;;;;;10.12;98.63;101137.38;5092295;28;20020;-47
2022/12/20 04:13:52;;;;;;;12.95;7.18;;;;;;;10.12;98.92;101148.56;5091690;28;20535;-48
2022/12/20 04:16:26;;;;;;;13.30;7.00;;;;;;;10.15;98.54;101140.06;5092347;28;20368;-46
2022/12/20 04:18:52;;;;;;;17.80;7.00;;;;;;;10.15;98.66;101128.06;5091678;28;20035;-48
2022/12/20 04:21:22;;;;;;;15.20;6.90;;;;;;;10.15;98.30;101129.78;5091964;28;20115;-48
2022/12/20 04:23:47;;;;;;;14.80;6.80;;;;;;;10.23;97.39;101128.31;5091905;28;20020;-48
2022/12/20 04:26:13;;;;;;;13.40;6.30;;;;;;;10.21;97.80;101138.59;5091711;28;20024;-46
2022/12/20 04:28:38;;;;;;;12.20;6.70;;;;;;;10.24;97.34;101134.34;5091620;28;20035;-47
2022/12/20 04:31:03;;;;;;;11.23;6.68;;;;;;;10.23;97.58;101132.63;5092214;28;20062;-46
2022/12/20 04:33:29;;;;;;;17.63;6.70;;;;;;;10.25;97.35;101130.94;5093389;28;20024;-49
2022/12/20 04:35:55;;;;;;;12.57;6.60;;;;;;;10.24;97.53;101131.78;5095486;28;20020;-48
2022/12/20 04:38:22;;;;;;;15.73;6.13;;;;;;;10.26;97.23;101132.72;5095735;28;20439;-48
2022/12/20 04:40:52;;;;;;;19.48;6.18;;;;;;;10.29;96.75;101112.19;5094979;28;20035;-49
2022/12/20 04:43:18;;;;;;;12.32;6.13;;;;;;;10.36;96.03;101120.22;5095493;28;20039;-46
2022/12/20 04:45:46;;;;;;;12.35;6.35;;;;;;;10.38;96.15;101128.03;5095226;28;20024;-49
2022/12/20 04:48:11;;;;;;;12.15;5.82;;;;;;;10.35;96.28;101113.34;5094962;28;20032;-45
2022/12/20 04:50:36;;;;;;;14.30;6.63;;;;;;;10.33;96.84;101124.41;5095383;28;20153;-47
2022/12/20 04:55:45;;;;;;;15.80;6.38;;;;;;;10.34;96.44;101116.72;5094565;28;20435;-46
2022/12/20 04:58:10;;;;;;;17.42;6.43;;;;;;;10.35;96.56;101117.56;5095318;28;20028;-49
2022/12/20 05:00:36;;;;;;;11.82;5.93;;;;;;;10.33;96.60;101125.25;5094386;28;20055;-48
2022/12/20 05:03:01;;;;;;;12.27;6.00;;;;;;;10.34;96.73;101113.25;5095255;28;20028;-46
2022/12/20 05:05:27;;;;;;;16.83;6.30;;;;;;;10.32;97.10;101113.19;5095389;28;20044;-48
2022/12/20 05:07:52;;;;;;;12.52;5.85;;;;;;;10.31;97.05;101110.56;5094212;28;20043;-48
2022/12/20 05:10:18;;;;;;;12.45;6.35;;;;;;;10.28;97.46;101110.47;5094903;28;20024;-48
2022/12/20 05:12:43;;;;;;;15.50;6.97;;;;;;;10.30;97.60;101109.69;5094609;28;20032;-47
2022/12/20 05:15:09;;;;;;;11.98;6.13;;;;;;;10.29;97.92;101107.94;5094559;28;20024;-44
2022/12/20 05:17:34;;;;;;;13.10;6.28;;;;;;;10.30;97.81;101088.19;5094743;28;20043;-46
2022/12/20 05:20:00;;;;;;;16.25;6.55;;;;;;;10.31;98.17;101101.13;5095154;28;20021;-48
2022/12/20 05:27:54;;;;;;;15.18;6.97;;;;;;;10.30;98.28;101075.31;5094635;28;20105;-48
2022/12/20 05:30:19;;;;;;;17.95;6.80;;;;;;;10.30;98.63;101077.91;5094058;28;20817;-49
2022/12/20 05:32:45;;;;;;;14.35;6.32;;;;;;;10.31;98.45;101074.50;5094432;28;20537;-47
2022/12/20 05:35:10;;;;;;;12.85;6.55;;;;;;;10.32;98.54;101084.00;5094609;28;20422;-48
2022/12/20 05:37:36;;;;;;;12.48;6.38;;;;;;;10.29;98.69;101078.72;5093472;28;20059;-49
2022/12/20 05:40:02;;;;;;;11.23;6.60;;;;;;;10.29;98.89;101076.13;5094720;28;20024;-48
2022/12/20 05:42:28;;;;;;;12.10;6.05;;;;;;;10.28;98.96;101062.41;5094706;28;20091;-46
2022/12/20 05:44:53;;;;;;;17.77;6.53;;;;;;;10.27;99.12;101063.22;5093220;28;20505;-48
2022/12/20 05:47:18;;;;;;;14.63;6.80;;;;;;;10.29;99.02;101070.97;5094518;28;20024;-48
2022/12/20 05:49:43;;;;;;;14.07;5.82;;;;;;;10.25;99.04;101061.41;5093589;28;20028;-49
2022/12/20 05:52:09;;;;;;;15.48;6.03;;;;;;;10.25;99.00;101063.97;5094109;28;20054;-49
2022/12/20 05:54:34;;;;;;;15.02;6.22;;;;;;;10.23;98.96;101055.34;5094140;28;20077;-47
2022/12/20 05:57:00;;;;;;;17.88;5.90;;;;;;;10.24;98.86;101052.81;5093816;28;20101;-49
2022/12/20 05:59:25;;;;;;;11.27;5.40;;;;;;;10.21;99.01;101057.84;5094120;28;20387;-48
2022/12/20 06:01:50;;;;;;;16.33;6.13;;;;;;;10.23;98.77;101034.75;5093520;28;20154;-48
2022/12/20 06:04:16;;;;;;;15.52;6.85;;;;;;;10.22;98.65;101044.16;5093410;28;20376;-48
2022/12/20 06:06:41;;;;;;;16.15;9.23;;;;;;;10.18;99.02;101053.47;5093433;28;20035;-49
2022/12/20 06:09:06;;;;;;;16.70;7.85;;;;;;;10.18;98.79;101045.72;5093743;28;20387;-48
2022/12/20 06:11:31;;;;;;;17.67;9.43;;;;;;;10.16;98.84;101029.38;5093335;28;20035;-46
2022/12/20 06:13:58;;;;;;;12.10;7.05;;;;;;;10.15;98.80;101027.59;5093832;28;20146;-48
2022/12/20 06:16:24;;;;;;;12.10;5.90;;;;;;;10.20;97.96;101017.47;5094055;28;20054;-49
2022/12/20 06:18:49;;;;;;;12.05;7.18;;;;;;;10.19;97.78;101008.84;5092976;28;20031;-48
2022/12/20 06:21:15;;;;;;;14.05;8.00;;;;;;;10.17;97.72;101019.94;5093456;28;20024;-48
2022/12/20 06:23:41;;;;;;;14.27;5.35;;;;;;;10.16;97.38;101013.91;5093240;28;20020;-48
2022/12/20 06:26:08;;;;;;;13.40;5.40;;;;;;;10.16;96.88;101013.91;5093327;28;20016;-47
2022/12/20 06:28:34;;;;;;;19.52;6.10;;;;;;;10.15;96.66;101022.47;5093053;28;20028;-48
2022/12/20 06:30:59;;;;;;;12.00;5.53;;;;;;;10.17;96.65;101030.22;5093808;28;20028;-46
2022/12/20 06:33:25;;;;;;;14.73;5.75;;;;;;;10.13;96.41;101029.25;5092828;28;20031;-48
2022/12/20 06:35:51;;;;;;;13.25;5.60;;;;;;;10.06;96.80;101027.31;5093148;28;20036;-48
2022/12/20 06:38:16;;;;;;;11.85;5.35;;;;;;;10.04;96.78;101028.94;5093650;28;20032;-48
2022/12/20 06:40:42;;;;;;;15.35;6.03;;;;;;;10.00;97.05;101030.53;5092468;28;20027;-48
2022/12/20 06:43:07;;;;;;;11.63;5.93;;;;;;;9.99;96.68;101033.94;5093506;28;20515;-48
2022/12/20 06:45:33;;;;;;;12.13;5.93;;;;;;;10.02;96.24;101028.88;5092926;28;20031;-47
2022/12/20 06:47:58;;;;;;;11.73;5.90;;;;;;;10.03;96.07;101038.38;5092485;28;20032;-47
2022/12/20 06:50:24;;;;;;;11.57;5.75;;;;;;;10.02;95.94;101023.75;5093195;28;20028;-45
2022/12/20 06:52:49;;;;;;;12.38;5.57;;;;;;;10.02;95.65;101030.59;5092844;28;20035;-45
2022/12/20 06:55:14;;;;;;;12.70;5.60;;;;;;;10.03;95.30;101016.88;5092208;28;20020;-48
2022/12/20 06:57:40;;;;;;;11.80;5.63;;;;;;;10.06;94.70;101024.72;5092675;28;20464;-48
2022/12/20 07:00:07;;;;;;;10.05;5.43;;;;;;;10.04;94.76;101018.63;5092443;28;20032;-49
2022/12/20 07:02:33;;;;;;;9.65;4.93;;;;;;;10.07;94.19;101021.34;5092441;28;20089;-46
2022/12/20 07:04:58;;;;;;;11.93;5.30;;;;;;;10.09;93.83;101027.41;5092941;28;20024;-49
2022/12/20 07:07:24;;;;;;;14.10;5.10;;;;;;;10.14;93.32;101023.28;5092376;28;20020;-49
2022/12/20 07:09:49;;;;;;;13.27;5.22;;;;;;;10.16;92.97;101037.09;5092341;28;20024;-47
2022/12/20 07:12:14;;;;;;;14.85;6.55;;;;;;;10.21;92.30;101030.41;5093057;28;20098;-48
2022/12/20 07:14:40;;;;;;;11.48;5.80;;;;;;;10.19;92.57;101026.88;5092181;28;20447;-48
2022/12/20 07:17:06;;;;;;;12.70;5.45;;;;;;;10.25;91.62;101025.34;5092784;28;20073;-48
2022/12/20 07:19:32;;;;;;;12.05;5.30;;;;;;;10.32;91.07;101024.72;5092429;28;20104;-45
2022/12/20 07:21:57;;;;;;;13.95;4.70;;;;;;;10.31;91.12;101029.00;5092402;28;20468;-48
2022/12/20 07:24:23;;;;;;;17.98;5.55;;;;;;;10.30;90.92;101026.38;5092795;28;20524;-48
2022/12/20 07:26:48;;;;;;;12.82;5.50;;;;;;;10.29;90.93;101010.06;5092667;28;20034;-48
2022/12/20 07:29:13;;;;;;;11.48;5.45;;;;;;;10.36;90.38;101017.16;5092479;28;20064;-45
2022/12/20 07:31:39;;;;;;;13.43;5.53;;;;;;;10.37;90.29;101018.06;5092271;28;20060;-49
2022/12/20 07:34:04;;;;;;;13.60;5.25;;;;;;;10.37;89.96;101018.94;5092771;28;20020;-47
2022/12/20 07:36:30;;;;;;;10.50;4.85;;;;;;;10.46;88.89;101009.78;5091847;28;20016;-44
2022/12/20 07:38:56;;;;;;;10.18;5.00;;;;;;;10.47;89.01;101020.13;5092602;28;20482;-49
2022/12/20 07:41:22;;;;;;;15.63;10.07;;;;;;;10.50;88.66;101027.94;5092547;28;20032;-45
2022/12/20 07:43:48;;;;;;;12.02;5.25;;;;;;;10.51;88.57;101027.13;5091554;28;20059;-49
2022/12/20 07:46:14;;;;;;;17.90;10.82;;;;;;;10.53;88.07;101022.00;5092613;28;20386;-48
2022/12/20 07:48:40;;;;;;;13.45;6.07;;;;;;;10.53;88.42;101025.47;5092214;28;20379;-47
2022/12/20 07:51:09;;;;;;;19.05;10.13;;;;;;;10.56;87.79;101039.28;5091679;28;20025;-48
2022/12/20 07:53:42;;;;;;;12.63;5.22;;;;;;;10.54;87.94;101037.53;5092312;28;20107;-48
2022/12/20 07:56:09;;;;;;;42.47;19.30;;;;;;;10.56;87.57;101040.16;5092484;28;20384;-49
2022/12/20 07:58:38;;;;;;;18.95;7.72;;;;;;;10.54;87.97;101050.41;5091325;28;20016;-48
2022/12/20 08:01:03;;;;;;;29.73;12.77;;;;;;;10.49;89.14;101051.09;5092510;28;20032;-48
2022/12/20 08:03:38;;;;;;;10.32;5.57;;;;;;;10.41;89.73;101060.28;5091690;28;20050;-48
2022/12/20 08:06:06;;;;;;;13.38;5.80;;;;;;;10.29;90.78;101055.53;5092392;28;20028;-48
2022/12/20 08:08:34;;;;;;;12.85;5.43;;;;;;;10.18;92.91;101061.19;5095538;28;20035;-44
2022/12/20 08:11:01;;;;;;;21.85;9.95;;;;;;;10.09;94.74;101053.16;5095696;28;20028;-48
2022/12/20 08:13:26;;;;;;;84.68;38.72;;;;;;;9.96;96.70;101057.00;5095892;28;20490;-49
2022/12/20 08:15:51;;;;;;;14.85;6.05;;;;;;;9.89;97.62;101050.75;5095706;28;20032;-47
2022/12/20 08:18:17;;;;;;;19.08;9.50;;;;;;;9.77;99.20;101045.16;5095716;28;20024;-49
2022/12/20 08:20:42;;;;;;;19.13;6.97;;;;;;;9.72;100.00;101042.44;5095526;28;20099;-48
2022/12/20 08:23:07;;;;;;;16.13;7.15;;;;;;;9.61;100.00;101041.16;5096076;28;20158;-49
2022/12/20 08:25:33;;;;;;;21.42;9.95;;;;;;;9.64;100.00;101045.53;5094884;28;20043;-47
2022/12/20 08:28:01;;;;;;;34.63;15.27;;;;;;;9.60;100.00;101051.41;5095845;28;20056;-44
2022/12/20 08:30:27;;;;;;;18.80;8.30;;;;;;;9.61;100.00;101048.00;5095660;28;20446;-48
2022/12/20 08:32:52;;;;;;;23.02;9.95;;;;;;;9.57;100.00;101047.03;5094672;28;20021;-44
2022/12/20 08:35:17;;;;;;;23.08;9.55;;;;;;;9.49;100.00;101049.31;5095945;28;20372;-47
2022/12/20 08:37:43;;;;;;;75.03;31.52;;;;;;;9.48;100.00;101047.53;5095574;28;20484;-44
2022/12/20 08:40:08;;;;;;;30.30;11.20;;;;;;;9.47;100.00;101050.94;5095037;28;20439;-48
2022/12/20 08:42:34;;;;;;;29.85;11.93;;;;;;;9.42;100.00;101046.44;5095423;28;20364;-49
2022/12/20 08:44:59;;;;;;;17.95;7.15;;;;;;;9.36;100.00;101053.13;5095544;28;20020;-50
2022/12/20 08:47:25;;;;;;;25.77;12.40;;;;;;;9.34;100.00;101043.59;5094925;28;20452;-48
2022/12/20 08:49:50;;;;;;;16.90;8.23;;;;;;;9.34;100.00;101033.28;5095073;28;20028;-46
2022/12/20 08:52:15;;;;;;;21.67;8.70;;;;;;;9.28;100.00;101043.34;5095332;28;20055;-49
2022/12/20 08:54:41;;;;;;;35.22;18.92;;;;;;;9.26;100.00;101027.88;5094373;28;20056;-47
2022/12/20 08:57:07;;;;;;;25.75;13.18;;;;;;;9.23;100.00;101026.06;5095570;28;20026;-47
2022/12/20 08:59:32;;;;;;;33.35;18.52;;;;;;;9.17;100.00;101035.25;5094868;28;20103;-46
2022/12/20 09:01:58;;;;;;;13.55;7.03;;;;;;;9.16;100.00;101034.34;5094405;28;20131;-48
2022/12/20 09:04:23;;;;;;;16.92;8.07;;;;;;;9.12;100.00;101027.34;5095323;28;20356;-49
2022/12/20 09:06:48;;;;;;;12.82;6.93;;;;;;;9.12;100.00;101031.63;5094484;28;20028;-49
2022/12/20 09:09:15;;;;;;;21.30;8.02;;;;;;;9.09;100.00;101032.38;5094970;28;20111;-50
2022/12/20 09:11:40;;;;;;;22.40;9.68;;;;;;;9.03;100.00;101026.97;5094577;28;20379;-47
2022/12/20 09:14:07;;;;;;;16.40;8.88;;;;;;;9.02;100.00;101022.66;5094484;28;20107;-50
2022/12/20 09:16:32;;;;;;;20.38;9.32;;;;;;;9.03;100.00;101026.97;5094397;28;20077;-47
2022/12/20 09:19:00;;;;;;;20.80;13.27;;;;;;;9.03;100.00;101015.00;5094427;28;20031;-50
2022/12/20 09:21:26;;;;;;;21.60;8.23;;;;;;;9.02;100.00;101020.09;5094424;28;20050;-49
2022/12/20 09:23:53;;;;;;;17.63;8.88;;;;;;;9.02;100.00;101025.22;5094505;28;20162;-48
2022/12/20 09:26:19;;;;;;;20.75;10.43;;;;;;;9.00;100.00;101024.28;5095242;28;20036;-48
2022/12/20 09:28:46;;;;;;;24.42;10.25;;;;;;;9.00;100.00;101024.28;5093576;28;20028;-48
2022/12/20 09:31:17;;;;;;;25.63;9.65;;;;;;;9.03;100.00;101019.28;5094643;28;20101;-48
2022/12/20 09:33:43;;;;;;;16.20;8.40;;;;;;;9.05;100.00;101022.75;5094518;28;20081;-49
2022/12/20 09:36:14;;;;;;;18.95;8.48;;;;;;;9.05;100.00;101028.81;5094061;28;20051;-48
2022/12/20 09:38:39;;;;;;;24.55;11.75;;;;;;;9.05;100.00;101023.66;5094276;28;20024;-49
2022/12/20 09:41:08;;;;;;;17.85;8.20;;;;;;;9.08;100.00;101025.47;5094431;28;20027;-48
2022/12/20 09:43:34;;;;;;;65.40;32.58;;;;;;;9.07;100.00;101021.13;5093315;28;20095;-49
2022/12/20 09:46:01;;;;;;;19.17;10.10;;;;;;;9.10;100.00;101023.81;5094567;28;20169;-49
2022/12/20 09:48:35;;;;;;;20.45;9.30;;;;;;;9.12;100.00;101022.19;5094269;28;20479;-50
2022/12/20 09:51:01;;;;;;;17.77;9.48;;;;;;;9.18;100.00;101016.38;5093522;28;20039;-46
2022/12/20 09:54:00;;;;;;;20.13;10.35;;;;;;;9.19;100.00;101025.88;5094327;28;20028;-49
2022/12/20 09:56:29;;;;;;;19.95;9.43;;;;;;;9.20;100.00;101025.91;5093731;28;20054;-46
2022/12/20 09:59:15;;;;;;;17.42;9.05;;;;;;;9.22;100.00;101018.28;5093918;28;20020;-49
2022/12/20 10:01:46;;;;;;;22.85;9.63;;;;;;;9.21;100.00;101016.53;5093726;28;20055;-48
2022/12/20 10:04:27;;;;;;;15.43;7.43;;;;;;;9.25;100.00;101017.53;5093239;28;20214;-50
2022/12/20 10:07:02;;;;;;;17.20;9.38;;;;;;;9.23;100.00;101014.88;5093900;28;20028;-49
2022/12/20 10:09:50;;;;;;;18.85;7.70;;;;;;;9.23;100.00;101008.06;5093875;28;20043;-48
2022/12/20 10:12:42;;;;;;;15.43;7.57;;;;;;;9.28;100.00;101013.34;5093131;28;20032;-46
2022/12/20 10:15:26;;;;;;;15.95;7.30;;;;;;;9.31;100.00;101015.16;5094015;28;20035;-47
2022/12/20 10:18:16;;;;;;;14.88;7.35;;;;;;;9.37;100.00;101007.69;5092664;28;20055;-50
2022/12/20 10:21:00;;;;;;;20.60;7.13;;;;;;;9.41;100.00;101014.69;5093575;28;20126;-49
2022/12/20 10:23:54;;;;;;;18.77;7.30;;;;;;;9.47;100.00;101012.34;5093802;28;20052;-49
2022/12/20 10:26:21;;;;;;;17.65;7.18;;;;;;;9.49;100.00;101005.56;5086959;28;20483;-49
2022/12/20 10:28:46;;;;;;;23.98;7.78;;;;;;;9.55;100.00;101010.94;5093182;28;20024;-49
2022/12/20 10:31:15;;;;;;;24.55;9.93;;;;;;;9.60;100.00;101011.09;5092466;28;20119;-49
2022/12/20 10:33:41;;;;;;;20.52;10.70;;;;;;;9.64;100.00;101004.38;5092916;28;20026;-49
2022/12/20 10:36:26;;;;;;;19.38;7.65;;;;;;;9.70;100.00;100999.44;5093454;28;20028;-49
2022/12/20 10:38:54;;;;;;;13.38;7.38;;;;;;;9.75;100.00;101002.16;5092316;28;20044;-49
2022/12/20 10:41:44;;;;;;;18.65;7.28;;;;;;;9.77;100.00;101011.69;5093324;28;20029;-48
2022/12/20 10:44:21;;;;;;;13.77;6.88;;;;;;;9.79;100.00;100998.91;5082460;28;20476;-49
2022/12/20 10:46:52;;;;;;;19.27;8.93;;;;;;;9.79;100.00;101002.34;5092175;28;20471;-47
2022/12/20 10:49:34;;;;;;;17.73;7.93;;;;;;;9.77;100.00;100997.97;5093284;28;20089;-48
2022/12/20 10:52:02;;;;;;;17.15;7.68;;;;;;;9.70;100.00;100987.44;5093274;28;20024;-47
2022/12/20 10:54:32;;;;;;;14.63;8.55;;;;;;;9.62;100.00;101000.84;5085748;28;20103;-46
2022/12/20 10:57:12;;;;;;;19.92;8.13;;;;;;;9.55;100.00;100982.63;5083670;28;20107;-49
2022/12/20 10:59:42;;;;;;;22.05;11.35;;;;;;;9.50;100.00;100989.31;5085709;28;20036;-48
2022/12/20 11:02:29;;;;;;;29.58;15.77;;;;;;;9.46;100.00;100982.28;5086522;28;20044;-47
2022/12/20 11:05:01;;;;;;;42.83;22.07;;;;;;;9.41;100.00;100988.09;5092796;28;20032;-49
2022/12/20 11:07:29;;;;;;;21.48;10.65;;;;;;;9.38;100.00;100974.28;5092320;28;20094;-49
2022/12/20 11:09:57;;;;;;;19.83;10.85;;;;;;;9.35;100.00;100981.91;5092798;28;20026;-47
2022/12/20 11:12:22;;;;;;;23.45;9.63;;;;;;;9.34;100.00;100981.84;5092888;28;20487;-47
2022/12/20 11:14:48;;;;;;;30.35;13.13;;;;;;;9.31;100.00;100981.72;5091827;28;20099;-48
2022/12/20 11:17:13;;;;;;;29.10;13.27;;;;;;;9.31;100.00;100982.63;5092720;28;20097;-48
2022/12/20 11:19:44;;;;;;;113.05;44.65;;;;;;;9.28;100.00;100979.91;5092415;28;20035;-48
2022/12/20 11:22:22;;;;;;;24.30;13.05;;;;;;;9.27;100.00;100980.75;5092074;28;20024;-49
2022/12/20 11:24:53;;;;;;;37.33;16.67;;;;;;;9.28;100.00;100972.19;5092605;28;20032;-46
2022/12/20 11:27:26;;;;;;;20.15;10.80;;;;;;;9.26;100.00;100967.81;5092242;28;20115;-45
2022/12/20 11:29:57;;;;;;;37.55;15.20;;;;;;;9.26;100.00;100972.97;5092111;28;20619;-46
2022/12/20 11:32:34;;;;;;;99.85;40.58;;;;;;;9.22;100.00;100967.72;5092733;28;20032;-49